sensor_id;sensor_type;location;lat;lon;timestamp;pressure;altitude;pressure_sealevel;temperature;humidity
35655;BME280;21773;50.010;19.972;2024-02-15T00:02:27;99253.78;;;12.91;100.00
35655;BME280;21773;50.010;19.972;2024-02-15T00:05:31;99259.19;;;12.91;100.00
35655;BME280;21773;50.010;19.972;2024-02-15T00:08:34;99266.31;;;12.85;100.00
35655;BME280;21773;50.010;19.972;2024-02-15T00:11:37;99259.72;;;12.81;100.00
35655;BME280;21773;50.010;19.972;2024-02-15T00:14:42;99262.28;;;12.76;100.00
35655;BME280;21773;50.010;19.972;2024-02-15T00:17:46;99277.09;;;12.74;100.00
35655;BME280;21773;50.010;19.972;2024-02-15T00:20:50;99271.06;;;12.72;100.00
35655;BME280;21773;50.010;19.972;2024-02-15T00:23:53;99267.63;;;12.65;100.00
35655;BME280;21773;50.010;19.972;2024-02-15T00:26:57;99257.78;;;12.52;100.00
35655;BME280;21773;50.010;19.972;2024-02-15T00:30:17;99261.47;;;12.39;100.00
35655;BME280;21773;50.010;19.972;2024-02-15T00:33:20;99261.81;;;12.25;100.00
35655;BME280;21773;50.010;19.972;2024-02-15T00:36:24;99207.16;;;11.80;100.00
35655;BME280;21773;50.010;19.972;2024-02-15T00:39:27;99251.22;;;11.80;100.00
35655;BME280;21773;50.010;19.972;2024-02-15T00:42:31;99261.22;;;11.73;100.00
35655;BME280;21773;50.010;19.972;2024-02-15T00:45:36;99259.22;;;11.62;100.00
35655;BME280;21773;50.010;19.972;2024-02-15T00:48:39;99268.81;;;11.58;100.00
35655;BME280;21773;50.010;19.972;2024-02-15T00:51:43;99272.81;;;11.49;100.00
35655;BME280;21773;50.010;19.972;2024-02-15T00:54:46;99274.94;;;11.40;100.00
35655;BME280;21773;50.010;19.972;2024-02-15T00:57:49;99264.84;;;11.29;100.00
35655;BME280;21773;50.010;19.972;2024-02-15T01:00:54;99268.59;;;11.28;100.00
35655;BME280;21773;50.010;19.972;2024-02-15T01:03:57;99270.06;;;11.24;100.00
35655;BME280;21773;50.010;19.972;2024-02-15T01:07:00;99268.84;;;11.20;100.00
35655;BME280;21773;50.010;19.972;2024-02-15T01:10:05;99274.06;;;11.15;100.00
35655;BME280;21773;50.010;19.972;2024-02-15T01:13:08;99277.19;;;11.12;100.00
35655;BME280;21773;50.010;19.972;2024-02-15T01:16:13;99272.84;;;11.11;100.00
35655;BME280;21773;50.010;19.972;2024-02-15T01:19:17;99268.72;;;11.08;100.00
35655;BME280;21773;50.010;19.972;2024-02-15T01:22:20;99274.50;;;11.12;100.00
35655;BME280;21773;50.010;19.972;2024-02-15T01:25:25;99275.91;;;11.14;100.00
35655;BME280;21773;50.010;19.972;2024-02-15T01:28:29;99270.31;;;11.16;100.00
35655;BME280;21773;50.010;19.972;2024-02-15T01:31:34;99268.44;;;11.16;100.00
35655;BME280;21773;50.010;19.972;2024-02-15T01:34:37;99268.25;;;11.18;100.00
35655;BME280;21773;50.010;19.972;2024-02-15T01:37:40;99270.69;;;11.19;100.00
35655;BME280;21773;50.010;19.972;2024-02-15T01:40:43;99267.34;;;11.24;100.00
35655;BME280;21773;50.010;19.972;2024-02-15T01:43:46;99275.03;;;11.27;100.00
35655;BME280;21773;50.010;19.972;2024-02-15T01:46:53;99276.25;;;11.31;100.00
35655;BME280;21773;50.010;19.972;2024-02-15T01:49:56;99277.09;;;11.32;100.00
35655;BME280;21773;50.010;19.972;2024-02-15T01:53:01;99258.88;;;11.20;100.00
35655;BME280;21773;50.010;19.972;2024-02-15T01:56:06;99283.69;;;11.36;100.00
35655;BME280;21773;50.010;19.972;2024-02-15T01:59:10;99288.66;;;11.39;100.00
35655;BME280;21773;50.010;19.972;2024-02-15T02:02:18;99267.94;;;11.33;100.00
35655;BME280;21773;50.010;19.972;2024-02-15T02:05:23;99282.81;;;11.48;100.00
35655;BME280;21773;50.010;19.972;2024-02-15T02:08:27;99284.03;;;11.52;100.00
35655;BME280;21773;50.010;19.972;2024-02-15T02:11:30;99266.59;;;11.48;100.00
35655;BME280;21773;50.010;19.972;2024-02-15T02:14:33;99279.19;;;11.61;100.00
35655;BME280;21773;50.010;19.972;2024-02-15T02:17:38;99268.38;;;11.61;100.00
35655;BME280;21773;50.010;19.972;2024-02-15T02:20:42;99275.59;;;11.67;100.00
35655;BME280;21773;50.010;19.972;2024-02-15T02:23:48;99286.38;;;11.73;100.00
35655;BME280;21773;50.010;19.972;2024-02-15T02:26:56;99287.00;;;11.76;100.00
35655;BME280;21773;50.010;19.972;2024-02-15T02:29:59;99279.28;;;11.79;100.00
35655;BME280;21773;50.010;19.972;2024-02-15T02:33:04;99272.81;;;11.80;100.00
35655;BME280;21773;50.010;19.972;2024-02-15T02:36:09;99270.16;;;11.73;100.00
35655;BME280;21773;50.010;19.972;2024-02-15T02:39:14;99269.38;;;11.66;100.00
35655;BME280;21773;50.010;19.972;2024-02-15T02:42:19;99265.94;;;11.53;100.00
35655;BME280;21773;50.010;19.972;2024-02-15T02:45:24;99258.34;;;11.43;100.00
35655;BME280;21773;50.010;19.972;2024-02-15T02:48:27;99268.28;;;11.43;100.00
35655;BME280;21773;50.010;19.972;2024-02-15T02:51:31;99244.31;;;11.28;100.00
35655;BME280;21773;50.010;19.972;2024-02-15T02:54:34;99256.22;;;11.45;100.00
35655;BME280;21773;50.010;19.972;2024-02-15T02:57:39;99263.91;;;11.48;100.00
35655;BME280;21773;50.010;19.972;2024-02-15T03:00:42;99257.22;;;11.51;100.00
35655;BME280;21773;50.010;19.972;2024-02-15T03:03:45;99263.00;;;11.54;100.00
35655;BME280;21773;50.010;19.972;2024-02-15T03:06:49;99257.78;;;11.59;100.00
35655;BME280;21773;50.010;19.972;2024-02-15T03:09:53;99258.31;;;11.68;100.00
35655;BME280;21773;50.010;19.972;2024-02-15T03:12:57;99262.22;;;11.79;100.00
35655;BME280;21773;50.010;19.972;2024-02-15T03:16:01;99262.34;;;11.90;100.00
35655;BME280;21773;50.010;19.972;2024-02-15T03:19:04;99261.84;;;12.00;100.00
35655;BME280;21773;50.010;19.972;2024-02-15T03:22:07;99251.16;;;12.11;100.00
35655;BME280;21773;50.010;19.972;2024-02-15T03:25:10;99250.41;;;12.23;100.00
35655;BME280;21773;50.010;19.972;2024-02-15T03:28:15;99257.16;;;12.32;100.00
35655;BME280;21773;50.010;19.972;2024-02-15T03:31:18;99257.09;;;12.38;100.00
35655;BME280;21773;50.010;19.972;2024-02-15T03:34:21;99250.19;;;12.42;100.00
35655;BME280;21773;50.010;19.972;2024-02-15T03:37:26;99253.28;;;12.46;100.00
35655;BME280;21773;50.010;19.972;2024-02-15T03:40:29;99243.50;;;12.45;100.00
35655;BME280;21773;50.010;19.972;2024-02-15T03:43:35;99247.09;;;12.57;100.00
35655;BME280;21773;50.010;19.972;2024-02-15T03:46:38;99247.25;;;12.62;100.00
35655;BME280;21773;50.010;19.972;2024-02-15T03:49:42;99250.72;;;12.69;100.00
35655;BME280;21773;50.010;19.972;2024-02-15T03:52:45;99217.75;;;12.61;100.00
35655;BME280;21773;50.010;19.972;2024-02-15T03:55:48;99248.69;;;12.83;100.00
35655;BME280;21773;50.010;19.972;2024-02-15T03:58:56;99248.00;;;12.87;100.00
35655;BME280;21773;50.010;19.972;2024-02-15T04:02:00;99251.66;;;12.93;100.00
35655;BME280;21773;50.010;19.972;2024-02-15T04:05:05;99254.53;;;12.98;100.00
35655;BME280;21773;50.010;19.972;2024-02-15T04:08:09;99255.50;;;13.03;100.00
35655;BME280;21773;50.010;19.972;2024-02-15T04:11:12;99256.69;;;13.08;100.00
35655;BME280;21773;50.010;19.972;2024-02-15T04:14:19;99258.91;;;13.11;100.00
35655;BME280;21773;50.010;19.972;2024-02-15T04:17:22;99252.50;;;13.12;100.00
35655;BME280;21773;50.010;19.972;2024-02-15T04:20:26;99253.09;;;13.14;100.00
35655;BME280;21773;50.010;19.972;2024-02-15T04:23:29;99249.91;;;13.17;100.00
35655;BME280;21773;50.010;19.972;2024-02-15T04:26:32;99252.63;;;13.17;100.00
35655;BME280;21773;50.010;19.972;2024-02-15T04:29:37;99258.25;;;13.15;100.00
35655;BME280;21773;50.010;19.972;2024-02-15T04:32:42;99255.03;;;13.07;100.00
35655;BME280;21773;50.010;19.972;2024-02-15T04:35:45;99201.66;;;12.66;100.00
35655;BME280;21773;50.010;19.972;2024-02-15T04:38:51;99252.94;;;12.90;100.00
35655;BME280;21773;50.010;19.972;2024-02-15T04:41:55;99255.38;;;12.80;100.00
35655;BME280;21773;50.010;19.972;2024-02-15T04:44:59;99257.53;;;12.72;100.00
35655;BME280;21773;50.010;19.972;2024-02-15T04:48:05;99252.09;;;12.60;100.00
35655;BME280;21773;50.010;19.972;2024-02-15T04:51:09;99251.94;;;12.55;100.00
35655;BME280;21773;50.010;19.972;2024-02-15T04:54:13;99252.63;;;12.50;100.00
35655;BME280;21773;50.010;19.972;2024-02-15T04:57:17;99253.34;;;12.39;100.00
35655;BME280;21773;50.010;19.972;2024-02-15T05:00:23;99254.63;;;12.37;100.00
35655;BME280;21773;50.010;19.972;2024-02-15T05:03:28;99250.72;;;12.33;100.00
35655;BME280;21773;50.010;19.972;2024-02-15T05:06:31;99256.38;;;12.31;100.00
35655;BME280;21773;50.010;19.972;2024-02-15T05:09:34;99270.69;;;12.32;100.00
35655;BME280;21773;50.010;19.972;2024-02-15T05:12:38;99260.31;;;12.29;100.00
35655;BME280;21773;50.010;19.972;2024-02-15T05:15:43;99262.81;;;12.30;100.00
35655;BME280;21773;50.010;19.972;2024-02-15T05:18:47;99271.13;;;12.29;100.00
35655;BME280;21773;50.010;19.972;2024-02-15T05:21:50;99270.09;;;12.30;100.00
35655;BME280;21773;50.010;19.972;2024-02-15T05:24:53;99271.13;;;12.29;100.00
35655;BME280;21773;50.010;19.972;2024-02-15T05:27:56;99275.94;;;12.27;100.00
35655;BME280;21773;50.010;19.972;2024-02-15T05:31:11;99269.09;;;12.24;100.00
35655;BME280;21773;50.010;19.972;2024-02-15T05:34:18;99276.38;;;12.24;100.00
35655;BME280;21773;50.010;19.972;2024-02-15T05:37:22;99285.31;;;12.24;100.00
35655;BME280;21773;50.010;19.972;2024-02-15T05:40:27;99289.91;;;12.24;100.00
35655;BME280;21773;50.010;19.972;2024-02-15T05:43:30;99294.06;;;12.26;100.00
35655;BME280;21773;50.010;19.972;2024-02-15T05:46:37;99289.91;;;12.24;100.00
35655;BME280;21773;50.010;19.972;2024-02-15T05:49:42;99293.66;;;12.23;100.00
35655;BME280;21773;50.010;19.972;2024-02-15T05:52:45;99293.22;;;12.26;100.00
35655;BME280;21773;50.010;19.972;2024-02-15T05:55:48;99291.56;;;12.25;100.00
35655;BME280;21773;50.010;19.972;2024-02-15T05:58:51;99290.03;;;12.10;100.00
35655;BME280;21773;50.010;19.972;2024-02-15T06:01:56;99287.03;;;11.94;100.00
35655;BME280;21773;50.010;19.972;2024-02-15T06:04:59;99291.03;;;11.91;100.00
35655;BME280;21773;50.010;19.972;2024-02-15T06:08:06;99292.34;;;11.82;100.00
35655;BME280;21773;50.010;19.972;2024-02-15T06:11:09;99294.16;;;11.88;100.00
35655;BME280;21773;50.010;19.972;2024-02-15T06:14:12;99294.78;;;11.90;100.00
35655;BME280;21773;50.010;19.972;2024-02-15T06:17:17;99297.47;;;11.90;100.00
35655;BME280;21773;50.010;19.972;2024-02-15T06:20:20;99292.63;;;11.99;100.00
35655;BME280;21773;50.010;19.972;2024-02-15T06:23:24;99296.53;;;12.03;100.00
35655;BME280;21773;50.010;19.972;2024-02-15T06:26:28;99301.50;;;12.06;100.00
35655;BME280;21773;50.010;19.972;2024-02-15T06:29:32;99293.00;;;12.02;100.00
35655;BME280;21773;50.010;19.972;2024-02-15T06:32:54;99304.41;;;12.04;100.00
35655;BME280;21773;50.010;19.972;2024-02-15T06:36:16;99304.53;;;12.16;100.00
35655;BME280;21773;50.010;19.972;2024-02-15T06:39:36;99297.97;;;12.30;100.00
35655;BME280;21773;50.010;19.972;2024-02-15T06:42:45;99299.31;;;12.39;100.00
35655;BME280;21773;50.010;19.972;2024-02-15T06:45:48;99304.38;;;12.54;100.00
35655;BME280;21773;50.010;19.972;2024-02-15T06:48:54;99307.16;;;12.66;100.00
35655;BME280;21773;50.010;19.972;2024-02-15T06:52:00;99309.34;;;12.75;100.00
35655;BME280;21773;50.010;19.972;2024-02-15T06:55:06;99305.66;;;12.88;100.00
35655;BME280;21773;50.010;19.972;2024-02-15T06:58:09;99307.00;;;12.97;100.00
35655;BME280;21773;50.010;19.972;2024-02-15T07:01:14;99309.34;;;13.12;100.00
35655;BME280;21773;50.010;19.972;2024-02-15T07:04:19;99311.88;;;13.25;100.00
35655;BME280;21773;50.010;19.972;2024-02-15T07:07:23;99317.13;;;13.38;100.00
35655;BME280;21773;50.010;19.972;2024-02-15T07:10:27;99322.81;;;13.48;100.00
35655;BME280;21773;50.010;19.972;2024-02-15T07:13:30;99323.09;;;13.58;100.00
35655;BME280;21773;50.010;19.972;2024-02-15T07:16:33;99321.94;;;13.66;100.00
35655;BME280;21773;50.010;19.972;2024-02-15T07:19:42;99323.47;;;13.73;100.00
35655;BME280;21773;50.010;19.972;2024-02-15T07:22:46;99316.91;;;13.81;100.00
35655;BME280;21773;50.010;19.972;2024-02-15T07:25:49;99321.16;;;13.88;100.00
35655;BME280;21773;50.010;19.972;2024-02-15T07:28:55;99322.94;;;13.95;100.00
35655;BME280;21773;50.010;19.972;2024-02-15T07:32:01;99334.53;;;14.02;100.00
35655;BME280;21773;50.010;19.972;2024-02-15T07:35:07;99334.66;;;14.07;100.00
35655;BME280;21773;50.010;19.972;2024-02-15T07:38:11;99336.41;;;14.13;100.00
35655;BME280;21773;50.010;19.972;2024-02-15T07:41:14;99340.91;;;14.19;100.00
35655;BME280;21773;50.010;19.972;2024-02-15T07:44:17;99329.34;;;14.23;100.00
35655;BME280;21773;50.010;19.972;2024-02-15T07:47:21;99334.19;;;14.33;100.00
35655;BME280;21773;50.010;19.972;2024-02-15T07:50:27;99325.63;;;14.36;100.00
35655;BME280;21773;50.010;19.972;2024-02-15T07:53:31;99327.50;;;14.47;100.00
35655;BME280;21773;50.010;19.972;2024-02-15T07:56:34;99326.34;;;14.55;100.00
35655;BME280;21773;50.010;19.972;2024-02-15T07:59:38;99330.44;;;14.57;100.00
35655;BME280;21773;50.010;19.972;2024-02-15T08:02:42;99326.56;;;14.53;100.00
35655;BME280;21773;50.010;19.972;2024-02-15T08:05:47;99315.09;;;14.63;100.00
35655;BME280;21773;50.010;19.972;2024-02-15T08:08:51;99321.69;;;14.79;100.00
35655;BME280;21773;50.010;19.972;2024-02-15T08:11:55;99318.72;;;14.92;100.00
35655;BME280;21773;50.010;19.972;2024-02-15T08:14:58;99326.03;;;15.03;100.00
35655;BME280;21773;50.010;19.972;2024-02-15T08:18:02;99321.53;;;15.08;100.00
35655;BME280;21773;50.010;19.972;2024-02-15T08:21:09;99330.63;;;15.14;100.00
35655;BME280;21773;50.010;19.972;2024-02-15T08:24:12;99323.84;;;15.16;100.00
35655;BME280;21773;50.010;19.972;2024-02-15T08:27:15;99325.28;;;15.19;100.00
35655;BME280;21773;50.010;19.972;2024-02-15T08:30:19;99324.56;;;15.24;100.00
35655;BME280;21773;50.010;19.972;2024-02-15T08:33:26;99321.56;;;15.37;100.00
35655;BME280;21773;50.010;19.972;2024-02-15T08:36:32;99322.47;;;15.54;100.00
35655;BME280;21773;50.010;19.972;2024-02-15T08:39:35;99326.19;;;15.65;100.00
35655;BME280;21773;50.010;19.972;2024-02-15T08:42:39;99314.94;;;15.73;100.00
35655;BME280;21773;50.010;19.972;2024-02-15T08:45:43;99334.56;;;15.91;100.00
35655;BME280;21773;50.010;19.972;2024-02-15T08:48:46;99326.00;;;15.99;100.00
35655;BME280;21773;50.010;19.972;2024-02-15T08:51:51;99332.94;;;16.07;100.00
35655;BME280;21773;50.010;19.972;2024-02-15T08:54:54;99337.44;;;16.18;100.00
35655;BME280;21773;50.010;19.972;2024-02-15T08:57:59;99329.47;;;16.28;100.00
35655;BME280;21773;50.010;19.972;2024-02-15T09:01:03;99326.91;;;16.38;100.00
35655;BME280;21773;50.010;19.972;2024-02-15T09:04:06;99331.94;;;16.46;100.00
35655;BME280;21773;50.010;19.972;2024-02-15T09:07:11;99328.94;;;16.48;100.00
35655;BME280;21773;50.010;19.972;2024-02-15T09:10:14;99334.00;;;16.56;100.00
35655;BME280;21773;50.010;19.972;2024-02-15T09:13:19;99330.91;;;16.53;100.00
35655;BME280;21773;50.010;19.972;2024-02-15T09:16:22;99333.00;;;16.45;100.00
35655;BME280;21773;50.010;19.972;2024-02-15T09:19:25;99331.34;;;16.44;100.00
35655;BME280;21773;50.010;19.972;2024-02-15T09:22:29;99340.50;;;16.55;100.00
35655;BME280;21773;50.010;19.972;2024-02-15T09:25:38;99337.38;;;16.63;100.00
35655;BME280;21773;50.010;19.972;2024-02-15T09:28:41;99333.59;;;16.64;100.00
35655;BME280;21773;50.010;19.972;2024-02-15T09:31:44;99349.91;;;16.81;100.00
35655;BME280;21773;50.010;19.972;2024-02-15T09:34:48;99353.00;;;16.89;100.00
35655;BME280;21773;50.010;19.972;2024-02-15T09:37:53;99343.31;;;16.99;100.00
35655;BME280;21773;50.010;19.972;2024-02-15T09:40:58;99344.72;;;17.01;100.00
35655;BME280;21773;50.010;19.972;2024-02-15T09:44:01;99342.44;;;16.93;100.00
35655;BME280;21773;50.010;19.972;2024-02-15T09:47:05;99341.53;;;16.87;100.00
35655;BME280;21773;50.010;19.972;2024-02-15T09:50:11;99349.94;;;16.86;100.00
35655;BME280;21773;50.010;19.972;2024-02-15T09:53:21;99344.56;;;16.91;100.00
35655;BME280;21773;50.010;19.972;2024-02-15T09:56:25;99344.31;;;16.93;100.00
35655;BME280;21773;50.010;19.972;2024-02-15T09:59:30;99343.88;;;17.01;100.00
35655;BME280;21773;50.010;19.972;2024-02-15T10:02:34;99334.84;;;17.17;100.00
35655;BME280;21773;50.010;19.972;2024-02-15T10:05:39;99333.19;;;17.38;100.00
35655;BME280;21773;50.010;19.972;2024-02-15T10:08:43;99327.13;;;17.57;100.00
35655;BME280;21773;50.010;19.972;2024-02-15T10:11:53;99331.53;;;17.85;100.00
35655;BME280;21773;50.010;19.972;2024-02-15T10:14:57;99326.28;;;18.05;100.00
35655;BME280;21773;50.010;19.972;2024-02-15T10:18:02;99331.25;;;18.45;100.00
35655;BME280;21773;50.010;19.972;2024-02-15T10:21:05;99319.00;;;18.90;100.00
35655;BME280;21773;50.010;19.972;2024-02-15T10:24:11;99316.19;;;19.37;100.00
35655;BME280;21773;50.010;19.972;2024-02-15T10:27:23;99309.47;;;19.90;100.00
35655;BME280;21773;50.010;19.972;2024-02-15T10:30:26;99310.81;;;20.84;100.00
35655;BME280;21773;50.010;19.972;2024-02-15T10:33:31;99309.44;;;22.67;93.57
35655;BME280;21773;50.010;19.972;2024-02-15T10:36:36;99300.38;;;25.46;76.66
35655;BME280;21773;50.010;19.972;2024-02-15T10:39:40;99298.00;;;28.43;64.31
35655;BME280;21773;50.010;19.972;2024-02-15T10:42:44;99300.50;;;30.86;55.46
35655;BME280;21773;50.010;19.972;2024-02-15T10:45:50;99290.78;;;33.90;47.22
35655;BME280;21773;50.010;19.972;2024-02-15T10:48:54;99293.06;;;36.79;37.88
35655;BME280;21773;50.010;19.972;2024-02-15T10:52:00;99289.88;;;39.51;32.70
35655;BME280;21773;50.010;19.972;2024-02-15T10:55:09;99274.03;;;40.79;30.00
35655;BME280;21773;50.010;19.972;2024-02-15T10:58:19;99273.66;;;40.81;29.49
35655;BME280;21773;50.010;19.972;2024-02-15T11:01:23;99275.69;;;39.90;29.45
35655;BME280;21773;50.010;19.972;2024-02-15T11:04:31;99273.75;;;39.44;29.74
35655;BME280;21773;50.010;19.972;2024-02-15T11:07:38;99262.56;;;41.00;28.15
35655;BME280;21773;50.010;19.972;2024-02-15T11:10:44;99260.78;;;42.60;27.22
35655;BME280;21773;50.010;19.972;2024-02-15T11:13:49;99260.16;;;43.49;25.32
35655;BME280;21773;50.010;19.972;2024-02-15T11:16:52;99260.59;;;44.46;25.61
35655;BME280;21773;50.010;19.972;2024-02-15T11:19:55;99256.31;;;45.06;23.41
35655;BME280;21773;50.010;19.972;2024-02-15T11:22:59;99247.63;;;45.58;22.79
35655;BME280;21773;50.010;19.972;2024-02-15T11:26:08;99245.03;;;45.93;22.54
35655;BME280;21773;50.010;19.972;2024-02-15T11:29:47;99247.03;;;45.80;21.79
35655;BME280;21773;50.010;19.972;2024-02-15T11:32:51;99240.19;;;45.77;22.20
35655;BME280;21773;50.010;19.972;2024-02-15T11:36:03;99240.72;;;45.72;22.48
35655;BME280;21773;50.010;19.972;2024-02-15T11:39:40;99231.41;;;46.13;21.87
35655;BME280;21773;50.010;19.972;2024-02-15T11:42:47;99232.34;;;46.23;22.24
35655;BME280;21773;50.010;19.972;2024-02-15T11:45:57;99230.97;;;46.40;21.87
35655;BME280;21773;50.010;19.972;2024-02-15T11:49:00;99216.66;;;46.14;22.14
35655;BME280;21773;50.010;19.972;2024-02-15T11:52:09;99216.84;;;45.53;22.02
35655;BME280;21773;50.010;19.972;2024-02-15T11:55:14;99218.53;;;45.06;21.96
35655;BME280;21773;50.010;19.972;2024-02-15T11:58:18;99225.41;;;44.20;22.36
35655;BME280;21773;50.010;19.972;2024-02-15T12:01:31;99215.13;;;43.90;22.36
35655;BME280;21773;50.010;19.972;2024-02-15T12:04:51;99205.81;;;42.81;23.42
35655;BME280;21773;50.010;19.972;2024-02-15T12:08:12;99211.47;;;42.23;24.23
35655;BME280;21773;50.010;19.972;2024-02-15T12:11:32;99204.16;;;42.56;23.84
35655;BME280;21773;50.010;19.972;2024-02-15T12:14:59;99205.69;;;42.61;23.32
35655;BME280;21773;50.010;19.972;2024-02-15T12:18:20;99201.72;;;42.55;23.13
35655;BME280;21773;50.010;19.972;2024-02-15T12:21:41;99196.66;;;41.82;23.77
35655;BME280;21773;50.010;19.972;2024-02-15T12:24:44;99189.84;;;39.73;24.75
35655;BME280;21773;50.010;19.972;2024-02-15T12:27:53;99197.19;;;39.31;26.76
35655;BME280;21773;50.010;19.972;2024-02-15T12:30:57;99195.63;;;39.34;27.12
35655;BME280;21773;50.010;19.972;2024-02-15T12:34:01;99186.72;;;38.29;27.31
35655;BME280;21773;50.010;19.972;2024-02-15T12:37:09;99179.41;;;38.03;27.90
35655;BME280;21773;50.010;19.972;2024-02-15T12:40:12;99185.53;;;36.85;28.40
35655;BME280;21773;50.010;19.972;2024-02-15T12:43:17;99185.22;;;35.20;30.89
35655;BME280;21773;50.010;19.972;2024-02-15T12:46:22;99183.38;;;33.94;33.18
35655;BME280;21773;50.010;19.972;2024-02-15T12:49:29;99181.25;;;32.99;34.78
35655;BME280;21773;50.010;19.972;2024-02-15T12:52:35;99177.53;;;31.89;36.53
35655;BME280;21773;50.010;19.972;2024-02-15T12:55:39;99168.13;;;30.77;38.81
35655;BME280;21773;50.010;19.972;2024-02-15T12:58:43;99181.59;;;30.05;42.04
35655;BME280;21773;50.010;19.972;2024-02-15T13:01:48;99169.81;;;29.25;44.51
35655;BME280;21773;50.010;19.972;2024-02-15T13:04:57;99166.19;;;28.37;47.00
35655;BME280;21773;50.010;19.972;2024-02-15T13:08:00;99162.50;;;28.07;48.68
35655;BME280;21773;50.010;19.972;2024-02-15T13:11:04;99159.50;;;27.66;50.99
35655;BME280;21773;50.010;19.972;2024-02-15T13:14:07;99161.28;;;27.53;52.39
35655;BME280;21773;50.010;19.972;2024-02-15T13:17:13;99158.84;;;27.51;51.52
35655;BME280;21773;50.010;19.972;2024-02-15T13:20:17;99149.69;;;27.25;52.02
35655;BME280;21773;50.010;19.972;2024-02-15T13:23:22;99153.09;;;26.96;52.59
35655;BME280;21773;50.010;19.972;2024-02-15T13:26:27;99158.81;;;26.60;53.95
35655;BME280;21773;50.010;19.972;2024-02-15T13:29:32;99150.63;;;26.38;55.09
35655;BME280;21773;50.010;19.972;2024-02-15T13:32:37;99150.97;;;26.14;55.31
35655;BME280;21773;50.010;19.972;2024-02-15T13:35:41;99148.78;;;26.03;58.36
35655;BME280;21773;50.010;19.972;2024-02-15T13:38:44;99146.84;;;26.03;57.90
35655;BME280;21773;50.010;19.972;2024-02-15T13:41:47;99136.75;;;25.76;57.90
35655;BME280;21773;50.010;19.972;2024-02-15T13:44:50;99147.31;;;25.16;59.58
35655;BME280;21773;50.010;19.972;2024-02-15T13:47:56;99140.53;;;24.59;61.49
35655;BME280;21773;50.010;19.972;2024-02-15T13:50:59;99141.03;;;24.34;63.45
35655;BME280;21773;50.010;19.972;2024-02-15T13:54:03;99132.56;;;24.16;65.22
35655;BME280;21773;50.010;19.972;2024-02-15T13:57:06;99144.91;;;24.19;64.59
35655;BME280;21773;50.010;19.972;2024-02-15T14:00:10;99146.06;;;24.18;65.55
35655;BME280;21773;50.010;19.972;2024-02-15T14:03:24;99137.25;;;24.30;64.97
35655;BME280;21773;50.010;19.972;2024-02-15T14:06:27;99142.59;;;24.40;64.13
35655;BME280;21773;50.010;19.972;2024-02-15T14:09:31;99147.06;;;24.49;63.59
35655;BME280;21773;50.010;19.972;2024-02-15T14:12:34;99146.44;;;24.39;65.37
35655;BME280;21773;50.010;19.972;2024-02-15T14:15:37;99128.81;;;24.26;65.14
35655;BME280;21773;50.010;19.972;2024-02-15T14:18:43;99148.09;;;24.40;65.65
35655;BME280;21773;50.010;19.972;2024-02-15T14:21:47;99128.19;;;24.29;66.31
35655;BME280;21773;50.010;19.972;2024-02-15T14:24:50;99148.44;;;24.06;67.35
35655;BME280;21773;50.010;19.972;2024-02-15T14:27:54;99155.63;;;23.74;69.20
35655;BME280;21773;50.010;19.972;2024-02-15T14:30:57;99159.81;;;23.35;70.37
35655;BME280;21773;50.010;19.972;2024-02-15T14:34:20;99166.28;;;23.06;71.60
35655;BME280;21773;50.010;19.972;2024-02-15T14:37:23;99156.69;;;22.85;73.68
35655;BME280;21773;50.010;19.972;2024-02-15T14:40:26;99155.16;;;22.50;76.57
35655;BME280;21773;50.010;19.972;2024-02-15T14:43:46;99155.94;;;22.32;77.63
35655;BME280;21773;50.010;19.972;2024-02-15T14:46:49;99160.75;;;22.16;78.53
35655;BME280;21773;50.010;19.972;2024-02-15T14:49:53;99158.28;;;21.86;80.85
35655;BME280;21773;50.010;19.972;2024-02-15T14:52:57;99146.97;;;21.64;81.94
35655;BME280;21773;50.010;19.972;2024-02-15T14:56:01;99166.16;;;21.30;84.40
35655;BME280;21773;50.010;19.972;2024-02-15T14:59:06;99176.41;;;21.14;85.70
35655;BME280;21773;50.010;19.972;2024-02-15T15:02:09;99170.44;;;20.92;87.98
35655;BME280;21773;50.010;19.972;2024-02-15T15:05:15;99173.84;;;20.73;90.19
35655;BME280;21773;50.010;19.972;2024-02-15T15:08:35;99168.72;;;20.52;91.25
35655;BME280;21773;50.010;19.972;2024-02-15T15:11:56;99169.88;;;20.36;92.18
35655;BME280;21773;50.010;19.972;2024-02-15T15:15:16;99168.22;;;20.19;93.27
35655;BME280;21773;50.010;19.972;2024-02-15T15:18:20;99178.13;;;19.90;96.37
35655;BME280;21773;50.010;19.972;2024-02-15T15:21:25;99175.16;;;19.71;97.08
35655;BME280;21773;50.010;19.972;2024-02-15T15:24:30;99128.31;;;19.07;98.83
35655;BME280;21773;50.010;19.972;2024-02-15T15:27:34;99170.69;;;19.15;100.00
35655;BME280;21773;50.010;19.972;2024-02-15T15:30:38;99178.56;;;18.91;100.00
35655;BME280;21773;50.010;19.972;2024-02-15T15:33:41;99179.34;;;18.76;100.00
35655;BME280;21773;50.010;19.972;2024-02-15T15:36:46;99182.28;;;18.59;100.00
35655;BME280;21773;50.010;19.972;2024-02-15T15:39:49;99184.81;;;18.29;100.00
35655;BME280;21773;50.010;19.972;2024-02-15T15:42:56;99184.09;;;18.02;100.00
35655;BME280;21773;50.010;19.972;2024-02-15T15:45:59;99187.84;;;17.91;100.00
35655;BME280;21773;50.010;19.972;2024-02-15T15:49:03;99194.56;;;17.78;100.00
35655;BME280;21773;50.010;19.972;2024-02-15T15:52:09;99200.19;;;17.66;100.00
35655;BME280;21773;50.010;19.972;2024-02-15T15:55:13;99193.50;;;17.52;100.00
35655;BME280;21773;50.010;19.972;2024-02-15T15:58:16;99197.75;;;17.38;100.00
35655;BME280;21773;50.010;19.972;2024-02-15T16:01:22;99203.88;;;17.23;100.00